Time;durP1;ratioP1;P1;durP2;ratioP2;P2;SDS_P1;SDS_P2;PMS_P1;PMS_P2;Temp;Humidity;BMP_temperature;BMP_pressure;BME280_temperature;BME280_humidity;BME280_pressure;Samples;Min_cycle;Max_cycle;Signal;HPM_P1;HPM_P2
2023/08/09 00:00:48;;;;;;;1.23;1.05;;;19.50;68.30;;;;;;4881443;29;20168;-79
2023/08/09 00:03:14;;;;;;;1.30;1.02;;;19.40;68.20;;;;;;4881139;29;20041;-79
2023/08/09 00:05:40;;;;;;;1.67;1.20;;;19.40;68.30;;;;;;4913190;29;20136;-79
2023/08/09 00:08:06;;;;;;;1.60;1.20;;;19.40;68.30;;;;;;4914779;29;20043;-79
2023/08/09 00:10:33;;;;;;;1.10;1.10;;;19.40;68.30;;;;;;4898975;29;20061;-79
2023/08/09 00:13:00;;;;;;;0.98;0.98;;;19.30;68.30;;;;;;4898523;29;20367;-78
2023/08/09 00:15:26;;;;;;;1.17;1.10;;;19.40;68.40;;;;;;4897164;29;20378;-79
2023/08/09 00:17:52;;;;;;;1.10;1.10;;;19.30;68.30;;;;;;4897163;29;20521;-79
2023/08/09 00:20:20;;;;;;;1.10;1.00;;;19.30;68.30;;;;;;4901342;29;20191;-79
2023/08/09 00:22:46;;;;;;;1.10;1.00;;;19.30;68.40;;;;;;4901163;29;20560;-79
2023/08/09 00:25:12;;;;;;;1.05;1.00;;;19.30;68.50;;;;;;4901230;29;20511;-79
2023/08/09 00:27:38;;;;;;;1.23;1.13;;;19.20;68.50;;;;;;4901431;29;20516;-79
2023/08/09 00:30:05;;;;;;;1.45;1.13;;;19.20;68.50;;;;;;4900373;29;20033;-79
2023/08/09 00:32:32;;;;;;;1.15;1.02;;;19.20;68.50;;;;;;4900673;29;20075;-79
2023/08/09 00:34:57;;;;;;;1.10;1.00;;;19.20;68.50;;;;;;4900853;29;20036;-79
2023/08/09 00:37:23;;;;;;;1.20;1.10;;;19.20;68.50;;;;;;4885477;29;20366;-79
2023/08/09 00:39:49;;;;;;;1.30;1.10;;;19.20;68.60;;;;;;4899990;29;20036;-79
2023/08/09 00:42:15;;;;;;;0.95;0.95;;;19.10;68.60;;;;;;4884646;29;20123;-79
2023/08/09 00:44:41;;;;;;;1.20;1.10;;;19.10;68.60;;;;;;4899792;29;20490;-80
2023/08/09 00:47:09;;;;;;;1.50;1.00;;;19.10;68.60;;;;;;4900155;29;20047;-80
2023/08/09 00:49:36;;;;;;;0.90;0.90;;;19.10;68.70;;;;;;4900013;29;20060;-79
2023/08/09 00:52:03;;;;;;;1.27;1.15;;;19.10;68.70;;;;;;4900672;29;20033;-79
2023/08/09 00:54:29;;;;;;;1.02;0.95;;;19.00;68.70;;;;;;4900568;29;20537;-79
2023/08/09 00:56:56;;;;;;;1.10;1.08;;;19.00;68.70;;;;;;4885629;29;20385;-79
2023/08/09 00:59:22;;;;;;;1.20;1.10;;;19.00;68.70;;;;;;4900980;29;20036;-79
2023/08/09 01:01:48;;;;;;;1.17;1.10;;;19.00;68.70;;;;;;4916219;29;20033;-79
2023/08/09 01:04:15;;;;;;;1.27;1.00;;;18.90;68.70;;;;;;4884211;29;20092;-79
2023/08/09 01:06:56;;;;;;;1.13;1.10;;;18.90;68.70;;;;;;4900271;29;20382;-79
2023/08/09 01:09:33;;;;;;;1.25;1.13;;;18.90;68.80;;;;;;4915700;29;20040;-79
2023/08/09 01:12:10;;;;;;;1.30;1.20;;;18.90;68.80;;;;;;4899559;29;20119;-79
2023/08/09 01:14:41;;;;;;;1.20;1.10;;;18.90;68.90;;;;;;4900487;29;20040;-79
2023/08/09 01:17:09;;;;;;;1.30;1.20;;;18.90;68.90;;;;;;4884082;29;20036;-79
2023/08/09 01:19:40;;;;;;;1.10;1.00;;;18.80;68.90;;;;;;4899513;29;20127;-79
2023/08/09 01:22:20;;;;;;;1.20;1.10;;;18.80;68.90;;;;;;4900405;29;20033;-79
2023/08/09 01:24:49;;;;;;;1.10;1.10;;;18.80;69.00;;;;;;4899846;29;20037;-79
2023/08/09 01:27:15;;;;;;;1.30;1.20;;;18.80;69.00;;;;;;4885012;29;20108;-79
2023/08/09 01:29:41;;;;;;;1.40;1.30;;;18.70;68.90;;;;;;4900028;29;20033;-79
2023/08/09 01:32:08;;;;;;;1.20;1.10;;;18.70;68.90;;;;;;4899647;29;20040;-79
2023/08/09 01:34:35;;;;;;;1.30;1.20;;;18.70;68.90;;;;;;4900308;29;20482;-79
2023/08/09 01:37:21;;;;;;;1.20;1.10;;;18.70;69.00;;;;;;4899241;29;20088;-79
2023/08/09 01:39:52;;;;;;;1.65;1.23;;;18.60;69.00;;;;;;4899414;29;20378;-80
2023/08/09 01:42:19;;;;;;;1.10;1.00;;;18.60;69.00;;;;;;4899573;29;20033;-79
2023/08/09 01:44:46;;;;;;;1.10;1.10;;;18.60;69.00;;;;;;4899118;29;20052;-79
2023/08/09 01:47:12;;;;;;;1.50;1.40;;;18.60;69.10;;;;;;4898867;29;20064;-79
2023/08/09 01:49:45;;;;;;;1.27;1.13;;;18.60;69.10;;;;;;4899312;29;20459;-79
2023/08/09 01:52:11;;;;;;;1.48;1.38;;;18.60;69.10;;;;;;4899944;29;20398;-79
2023/08/09 01:54:37;;;;;;;1.40;1.30;;;18.50;69.10;;;;;;4899700;29;20092;-79
2023/08/09 01:57:03;;;;;;;1.58;1.40;;;18.50;69.10;;;;;;4900563;29;20532;-79
2023/08/09 01:59:29;;;;;;;1.40;1.30;;;18.50;69.20;;;;;;4898873;29;20033;-79
2023/08/09 02:01:55;;;;;;;1.50;1.40;;;18.50;69.20;;;;;;4898738;29;20123;-79
2023/08/09 02:04:21;;;;;;;1.50;1.40;;;18.50;69.20;;;;;;4882840;29;20135;-79
2023/08/09 02:06:46;;;;;;;1.80;1.60;;;18.50;69.20;;;;;;4898478;29;20542;-80
2023/08/09 02:09:12;;;;;;;1.65;1.50;;;18.40;69.20;;;;;;4899417;29;20185;-79
2023/08/09 02:11:38;;;;;;;2.00;1.50;;;18.40;69.30;;;;;;4899232;29;20040;-79
2023/08/09 02:14:04;;;;;;;2.00;1.80;;;18.40;69.30;;;;;;4899289;29;20044;-80
2023/08/09 02:16:29;;;;;;;1.88;1.67;;;18.40;69.40;;;;;;4898525;29;20111;-79
2023/08/09 02:18:55;;;;;;;2.08;1.88;;;18.40;69.40;;;;;;4898277;29;20051;-79
2023/08/09 02:21:21;;;;;;;2.00;1.60;;;18.40;69.40;;;;;;4882942;29;20032;-79
2023/08/09 02:23:48;;;;;;;2.33;1.95;;;18.40;69.40;;;;;;4898283;29;20105;-79
2023/08/09 02:26:15;;;;;;;2.08;1.88;;;18.40;69.50;;;;;;4914476;29;20435;-78
2023/08/09 02:28:41;;;;;;;3.15;2.22;;;18.40;69.50;;;;;;4898107;29;20402;-79
2023/08/09 02:31:10;;;;;;;2.25;2.05;;;18.30;69.50;;;;;;4898677;29;20088;-79
2023/08/09 02:33:38;;;;;;;3.13;2.30;;;18.40;69.60;;;;;;4898060;29;20037;-80
2023/08/09 02:36:04;;;;;;;2.80;2.20;;;18.40;69.60;;;;;;4913572;29;20041;-77
2023/08/09 02:38:31;;;;;;;2.60;2.20;;;18.40;69.60;;;;;;4882641;29;20482;-77
2023/08/09 02:40:58;;;;;;;2.78;2.38;;;18.30;69.60;;;;;;4897947;29;20029;-78
2023/08/09 02:43:24;;;;;;;3.47;2.50;;;18.30;69.60;;;;;;4882416;29;20068;-77
2023/08/09 02:45:51;;;;;;;2.65;2.20;;;18.30;69.60;;;;;;4898096;29;20039;-78
2023/08/09 02:48:17;;;;;;;2.90;2.13;;;18.30;69.60;;;;;;4882355;29;20110;-77
2023/08/09 02:50:43;;;;;;;2.60;2.17;;;18.30;69.70;;;;;;4898719;29;20127;-77
2023/08/09 02:53:09;;;;;;;3.38;2.45;;;18.30;69.70;;;;;;4882962;29;20088;-77
2023/08/09 02:55:35;;;;;;;3.55;2.70;;;18.30;69.70;;;;;;4898051;29;20040;-77
2023/08/09 02:58:03;;;;;;;3.38;2.63;;;18.30;69.70;;;;;;4898290;29;20649;-77
2023/08/09 03:00:30;;;;;;;2.92;2.45;;;18.30;69.80;;;;;;4898789;29;20031;-77
2023/08/09 03:02:56;;;;;;;3.08;2.50;;;18.30;69.80;;;;;;4897388;29;20036;-77
2023/08/09 03:05:22;;;;;;;3.30;2.65;;;18.20;69.70;;;;;;4897538;29;20051;-77
2023/08/09 03:07:47;;;;;;;3.17;2.55;;;18.30;69.80;;;;;;4897541;29;20386;-78
2023/08/09 03:10:13;;;;;;;3.75;2.90;;;18.30;69.90;;;;;;4897817;29;20032;-77
2023/08/09 03:12:39;;;;;;;3.78;2.90;;;18.30;69.80;;;;;;4897536;29;20534;-77
2023/08/09 03:15:05;;;;;;;3.92;3.10;;;18.30;69.90;;;;;;4897834;29;20064;-77
2023/08/09 03:17:32;;;;;;;3.95;3.00;;;18.30;69.90;;;;;;4913205;29;20039;-77
2023/08/09 03:19:58;;;;;;;3.55;2.72;;;18.30;69.90;;;;;;4897740;29;20032;-77
2023/08/09 03:22:24;;;;;;;3.58;2.80;;;18.30;69.90;;;;;;4913104;29;20036;-77
2023/08/09 03:24:50;;;;;;;4.22;2.97;;;18.30;70.00;;;;;;4881757;29;20047;-78
2023/08/09 03:27:16;;;;;;;4.32;2.72;;;18.20;70.00;;;;;;4897585;29;20087;-78
2023/08/09 03:29:43;;;;;;;3.78;2.90;;;18.30;70.00;;;;;;4881672;29;20049;-77
2023/08/09 03:32:08;;;;;;;3.42;2.80;;;18.20;70.00;;;;;;4898688;29;20036;-77
2023/08/09 03:34:35;;;;;;;3.92;3.00;;;18.20;70.00;;;;;;4897008;29;20040;-78
2023/08/09 03:37:02;;;;;;;3.83;2.83;;;18.20;70.00;;;;;;4897516;29;20043;-77
2023/08/09 03:39:28;;;;;;;3.90;3.05;;;18.20;70.00;;;;;;4881993;29;20036;-78
2023/08/09 03:41:53;;;;;;;3.92;2.90;;;18.20;70.00;;;;;;4897303;29;20032;-78
2023/08/09 03:44:19;;;;;;;4.90;3.15;;;18.20;70.00;;;;;;4881853;29;20087;-77
2023/08/09 03:46:46;;;;;;;4.35;3.15;;;18.20;70.10;;;;;;4897383;29;20040;-77
2023/08/09 03:49:14;;;;;;;4.55;3.20;;;18.20;70.10;;;;;;4912897;29;20045;-77
2023/08/09 03:51:40;;;;;;;4.25;3.20;;;18.20;70.10;;;;;;4896797;29;20035;-78
2023/08/09 03:54:06;;;;;;;4.53;3.40;;;18.20;70.10;;;;;;4898776;29;20040;-78
2023/08/09 03:56:32;;;;;;;4.80;3.70;;;18.20;70.10;;;;;;4901204;29;20033;-77
2023/08/09 03:58:58;;;;;;;4.28;3.30;;;18.20;70.10;;;;;;4901718;29;20120;-78
2023/08/09 04:01:23;;;;;;;4.05;2.97;;;18.20;70.20;;;;;;4901160;29;20109;-78
2023/08/09 04:03:49;;;;;;;3.78;2.88;;;18.20;70.20;;;;;;4916729;29;20049;-77
2023/08/09 04:06:15;;;;;;;4.65;3.38;;;18.20;70.20;;;;;;4901872;29;20069;-76
2023/08/09 04:08:41;;;;;;;4.53;3.17;;;18.10;70.10;;;;;;4901641;29;20084;-77
2023/08/09 04:11:09;;;;;;;4.45;3.28;;;18.20;70.20;;;;;;4900721;29;20036;-77
2023/08/09 04:13:35;;;;;;;4.22;3.35;;;18.10;70.20;;;;;;4900999;29;20124;-77
2023/08/09 04:16:00;;;;;;;4.57;3.38;;;18.10;70.20;;;;;;4900583;29;20462;-77
2023/08/09 04:18:26;;;;;;;4.30;3.30;;;18.20;70.30;;;;;;4885194;29;20482;-76
2023/08/09 04:20:52;;;;;;;4.22;3.15;;;18.10;70.20;;;;;;4900920;29;20096;-77
2023/08/09 04:23:18;;;;;;;4.60;3.17;;;18.10;70.20;;;;;;4900511;29;20551;-77
2023/08/09 04:25:44;;;;;;;5.32;3.35;;;18.20;70.30;;;;;;4900232;29;20517;-77
2023/08/09 04:28:10;;;;;;;4.78;3.55;;;18.10;70.30;;;;;;4900781;29;20478;-77
2023/08/09 04:30:36;;;;;;;4.93;3.65;;;18.10;70.30;;;;;;4885455;29;20473;-76
2023/08/09 04:33:03;;;;;;;4.72;3.47;;;18.10;70.30;;;;;;4900121;29;20049;-77
2023/08/09 04:35:33;;;;;;;4.43;3.17;;;18.10;70.30;;;;;;4901625;29;20036;-77
2023/08/09 04:38:03;;;;;;;4.65;3.50;;;18.10;70.40;;;;;;4900137;29;20041;-77
2023/08/09 04:40:30;;;;;;;4.22;3.13;;;18.10;70.30;;;;;;4900370;29;20115;-77
2023/08/09 04:42:57;;;;;;;4.82;3.55;;;18.10;70.40;;;;;;4901671;29;20033;-77
2023/08/09 04:45:24;;;;;;;4.65;3.55;;;18.10;70.40;;;;;;4915473;29;20104;-76
2023/08/09 04:47:52;;;;;;;4.70;3.35;;;18.10;70.40;;;;;;4900252;29;20033;-76
2023/08/09 04:50:19;;;;;;;4.25;3.25;;;18.10;70.40;;;;;;4900103;29;20028;-76
2023/08/09 04:52:45;;;;;;;4.55;3.38;;;18.10;70.40;;;;;;4901283;29;20059;-77
2023/08/09 04:55:11;;;;;;;4.40;3.38;;;18.10;70.40;;;;;;4900127;29;20147;-76
2023/08/09 04:57:38;;;;;;;4.50;3.50;;;18.10;70.40;;;;;;4900666;29;20504;-76
2023/08/09 05:00:08;;;;;;;5.60;3.97;;;18.10;70.50;;;;;;4884464;29;20057;-76
2023/08/09 05:02:36;;;;;;;4.80;3.20;;;18.10;70.50;;;;;;4900355;29;20127;-77
2023/08/09 05:05:06;;;;;;;4.45;3.42;;;18.10;70.50;;;;;;4898946;29;20053;-76
2023/08/09 05:07:32;;;;;;;4.72;3.60;;;18.10;70.50;;;;;;4899542;29;20033;-76
2023/08/09 05:10:00;;;;;;;5.25;3.30;;;18.10;70.50;;;;;;4899627;29;20029;-76
2023/08/09 05:12:25;;;;;;;5.20;3.55;;;18.10;70.80;;;;;;4900754;29;20036;-76
2023/08/09 05:14:51;;;;;;;4.72;3.42;;;18.10;70.50;;;;;;4884282;29;20047;-77
2023/08/09 05:17:17;;;;;;;5.15;3.65;;;18.10;70.50;;;;;;4899684;29;20082;-77
2023/08/09 05:19:43;;;;;;;4.93;3.60;;;18.10;70.50;;;;;;4899833;29;20048;-78
2023/08/09 05:22:08;;;;;;;5.00;3.78;;;18.10;70.50;;;;;;4899785;29;20496;-78
2023/08/09 05:24:34;;;;;;;5.15;3.72;;;18.10;70.60;;;;;;4915123;29;20489;-77
2023/08/09 05:27:00;;;;;;;5.70;4.13;;;18.10;70.60;;;;;;4899155;29;20044;-80
2023/08/09 05:29:25;;;;;;;5.22;3.97;;;18.10;70.60;;;;;;4899607;29;20067;-77
2023/08/09 05:31:51;;;;;;;6.30;4.03;;;18.10;70.60;;;;;;4899517;29;20036;-77
2023/08/09 05:34:17;;;;;;;6.30;4.13;;;18.10;70.60;;;;;;4884533;29;20036;-77
2023/08/09 05:36:44;;;;;;;6.05;4.22;;;18.10;70.60;;;;;;4915204;29;20040;-77
2023/08/09 05:39:10;;;;;;;6.28;4.50;;;18.10;70.70;;;;;;4899432;29;20371;-77
2023/08/09 05:41:36;;;;;;;6.03;4.78;;;18.10;70.60;;;;;;4914856;29;20056;-80
2023/08/09 05:44:02;;;;;;;6.25;4.57;;;18.10;70.60;;;;;;4900563;29;20505;-78
2023/08/09 05:46:28;;;;;;;5.70;4.22;;;18.10;71.20;;;;;;4900648;29;20036;-77
2023/08/09 05:48:55;;;;;;;5.38;4.15;;;18.10;70.70;;;;;;4899321;29;20036;-76
2023/08/09 05:51:21;;;;;;;6.70;4.75;;;18.10;70.70;;;;;;4898863;29;20037;-77
2023/08/09 05:53:46;;;;;;;6.03;4.63;;;18.10;70.70;;;;;;4899231;29;20379;-77
2023/08/09 05:56:13;;;;;;;6.05;4.47;;;18.10;70.70;;;;;;4914688;29;20060;-77
2023/08/09 05:58:38;;;;;;;5.35;3.83;;;18.10;70.70;;;;;;4883422;29;20029;-77
2023/08/09 06:01:07;;;;;;;6.50;4.70;;;18.10;70.70;;;;;;4914448;29;20055;-77
2023/08/09 06:03:36;;;;;;;5.70;4.32;;;18.10;70.70;;;;;;4883979;29;20092;-77
2023/08/09 06:06:02;;;;;;;6.22;4.50;;;18.10;70.70;;;;;;4898678;29;20485;-77
2023/08/09 06:08:27;;;;;;;5.97;4.20;;;18.10;70.80;;;;;;4914909;29;20120;-77
2023/08/09 06:10:53;;;;;;;5.47;4.18;;;18.10;70.80;;;;;;4883240;29;20037;-77
2023/08/09 06:13:19;;;;;;;5.72;4.32;;;18.10;70.80;;;;;;4898645;29;20497;-77
2023/08/09 06:15:45;;;;;;;5.40;4.30;;;18.10;70.80;;;;;;4898998;29;20033;-77
2023/08/09 06:18:10;;;;;;;5.88;4.15;;;18.10;70.80;;;;;;4898288;29;20040;-77
2023/08/09 06:20:36;;;;;;;5.90;4.40;;;18.10;70.80;;;;;;4898590;29;20123;-77
2023/08/09 06:23:02;;;;;;;5.97;4.20;;;18.10;70.80;;;;;;4898491;29;20048;-76
2023/08/09 06:25:28;;;;;;;6.25;4.03;;;18.20;70.90;;;;;;4897939;29;20068;-77
2023/08/09 06:27:54;;;;;;;5.18;4.07;;;18.10;70.90;;;;;;4882897;29;20688;-77
2023/08/09 06:30:20;;;;;;;6.55;4.40;;;18.20;70.90;;;;;;4899085;29;20064;-77
2023/08/09 06:32:48;;;;;;;5.32;3.92;;;18.20;70.90;;;;;;4898338;29;20049;-77
2023/08/09 06:35:14;;;;;;;6.30;4.25;;;18.20;70.90;;;;;;4898133;29;20052;-77
2023/08/09 06:37:39;;;;;;;5.70;4.10;;;18.20;70.90;;;;;;4898156;29;20041;-77
2023/08/09 06:40:07;;;;;;;5.30;3.90;;;18.20;70.90;;;;;;4898258;29;20040;-77
2023/08/09 06:42:33;;;;;;;6.03;3.90;;;18.20;70.90;;;;;;4883077;29;20041;-76
2023/08/09 06:45:02;;;;;;;6.40;4.53;;;18.20;71.00;;;;;;4898010;29;20036;-77
2023/08/09 06:47:28;;;;;;;6.15;4.10;;;18.20;71.00;;;;;;4913672;29;20048;-76
2023/08/09 06:49:54;;;;;;;6.20;4.07;;;18.20;70.90;;;;;;4882253;29;20037;-76
2023/08/09 06:52:19;;;;;;;5.85;4.15;;;18.20;71.00;;;;;;4914271;29;20040;-77
2023/08/09 06:54:45;;;;;;;6.57;4.25;;;18.30;71.00;;;;;;4913640;29;20493;-76
2023/08/09 06:57:11;;;;;;;5.45;4.10;;;18.30;71.00;;;;;;4883089;29;20036;-77
2023/08/09 06:59:37;;;;;;;5.30;3.67;;;18.30;71.00;;;;;;4913508;29;20028;-77
2023/08/09 07:02:02;;;;;;;5.43;3.83;;;18.30;71.00;;;;;;4897809;29;20036;-76
2023/08/09 07:04:28;;;;;;;5.85;4.43;;;18.20;71.00;;;;;;4898996;29;20036;-77
2023/08/09 07:06:54;;;;;;;5.30;3.53;;;18.30;71.00;;;;;;4882558;29;20040;-77
2023/08/09 07:09:20;;;;;;;5.68;4.03;;;18.30;71.00;;;;;;4897479;29;20033;-78
2023/08/09 07:11:46;;;;;;;5.88;4.30;;;18.30;71.00;;;;;;4897996;29;20177;-77
2023/08/09 07:14:12;;;;;;;5.35;3.80;;;18.30;71.00;;;;;;4882365;29;20377;-78
2023/08/09 07:16:37;;;;;;;6.13;4.15;;;18.30;71.00;;;;;;4898380;29;20037;-78
2023/08/09 07:19:03;;;;;;;6.43;4.50;;;18.30;71.00;;;;;;4897549;29;20497;-78
2023/08/09 07:21:29;;;;;;;5.00;3.70;;;18.30;71.00;;;;;;4897466;29;20036;-77
2023/08/09 07:23:55;;;;;;;5.57;4.25;;;18.30;71.00;;;;;;4881808;29;20120;-78
2023/08/09 07:26:21;;;;;;;5.32;3.88;;;18.30;71.00;;;;;;4882336;29;20071;-77
2023/08/09 07:28:47;;;;;;;5.78;3.63;;;18.40;71.00;;;;;;4896592;29;20412;-78
2023/08/09 07:31:18;;;;;;;5.40;3.83;;;18.40;71.00;;;;;;4912846;29;20038;-77
2023/08/09 07:33:44;;;;;;;5.43;3.78;;;18.40;71.10;;;;;;4882211;29;20405;-77
2023/08/09 07:36:10;;;;;;;5.70;3.88;;;18.40;71.00;;;;;;4897375;29;20036;-77
2023/08/09 07:38:36;;;;;;;5.43;3.88;;;18.40;71.00;;;;;;4897100;29;20036;-77
2023/08/09 07:41:03;;;;;;;4.97;3.67;;;18.40;71.00;;;;;;4881640;29;20035;-77
2023/08/09 07:43:28;;;;;;;4.93;3.70;;;18.40;71.00;;;;;;4913129;29;20024;-78
2023/08/09 07:45:54;;;;;;;6.32;4.22;;;18.50;71.00;;;;;;4898067;29;20068;-78
2023/08/09 07:48:20;;;;;;;5.90;4.07;;;18.50;71.00;;;;;;4897576;29;20099;-75
2023/08/09 07:50:46;;;;;;;5.07;3.67;;;18.50;71.00;;;;;;4897221;29;20037;-78
2023/08/09 07:53:12;;;;;;;5.18;3.58;;;18.50;71.00;;;;;;4898147;29;20036;-78
2023/08/09 07:55:39;;;;;;;5.28;3.97;;;18.60;71.00;;;;;;4898133;29;20040;-78
2023/08/09 07:58:05;;;;;;;6.30;4.13;;;18.50;70.90;;;;;;4897900;29;20176;-78
2023/08/09 08:00:31;;;;;;;6.03;4.07;;;18.60;71.00;;;;;;4881882;29;20036;-78
2023/08/09 08:02:57;;;;;;;5.95;3.75;;;18.60;71.00;;;;;;4896895;29;20390;-78
2023/08/09 08:05:23;;;;;;;5.03;3.45;;;18.60;70.90;;;;;;4896744;29;20044;-78
2023/08/09 08:07:49;;;;;;;4.80;3.60;;;18.60;70.90;;;;;;4897080;29;20037;-77
2023/08/09 08:10:14;;;;;;;5.80;3.72;;;18.60;70.90;;;;;;4913272;29;20359;-78
2023/08/09 08:12:42;;;;;;;4.88;3.40;;;18.70;71.00;;;;;;4881545;29;20474;-77
2023/08/09 08:15:08;;;;;;;4.70;3.15;;;18.70;71.00;;;;;;4896969;29;20044;-78
2023/08/09 08:17:34;;;;;;;4.97;3.33;;;18.70;70.90;;;;;;4881959;29;20037;-78
2023/08/09 08:20:00;;;;;;;5.30;3.88;;;18.70;70.90;;;;;;4896818;29;20111;-78
2023/08/09 08:22:26;;;;;;;5.15;3.47;;;18.80;70.90;;;;;;4896584;29;20159;-77
2023/08/09 08:24:52;;;;;;;6.00;3.65;;;18.80;70.90;;;;;;4896919;29;20080;-77
2023/08/09 08:27:18;;;;;;;4.75;3.40;;;18.80;70.90;;;;;;4881242;29;20413;-78
2023/08/09 08:29:44;;;;;;;4.35;3.15;;;18.80;70.90;;;;;;4896880;29;20077;-78
2023/08/09 08:32:13;;;;;;;4.45;3.13;;;18.80;70.80;;;;;;4897470;29;20525;-77
2023/08/09 08:34:39;;;;;;;5.00;3.72;;;18.90;70.80;;;;;;4912709;29;20081;-77
2023/08/09 08:37:04;;;;;;;4.50;3.17;;;18.90;70.70;;;;;;4897565;29;20037;-77
2023/08/09 08:39:35;;;;;;;4.43;3.03;;;18.90;70.70;;;;;;4897168;29;20041;-77
2023/08/09 08:42:01;;;;;;;4.18;3.00;;;19.00;70.70;;;;;;4885013;29;20096;-78
2023/08/09 08:44:27;;;;;;;4.63;3.38;;;19.00;70.60;;;;;;4900007;29;20044;-77
2023/08/09 08:46:53;;;;;;;4.15;3.05;;;19.10;70.60;;;;;;4900954;29;20033;-78
2023/08/09 08:49:23;;;;;;;4.05;2.80;;;19.10;70.60;;;;;;4900174;29;20165;-78
2023/08/09 08:51:52;;;;;;;4.03;3.03;;;19.10;70.50;;;;;;4900308;29;20037;-78
2023/08/09 08:54:19;;;;;;;4.82;3.20;;;19.20;70.40;;;;;;4915776;29;20044;-78
2023/08/09 08:56:46;;;;;;;4.38;3.20;;;19.30;70.40;;;;;;4884742;29;20031;-78
2023/08/09 08:59:12;;;;;;;4.40;3.05;;;19.30;70.30;;;;;;4900203;29;20028;-78
2023/08/09 09:01:37;;;;;;;4.50;3.13;;;19.30;70.20;;;;;;4884396;29;20036;-78
2023/08/09 09:04:03;;;;;;;3.90;3.00;;;19.40;70.20;;;;;;4884691;29;20044;-78
2023/08/09 09:06:30;;;;;;;3.70;2.78;;;19.50;70.20;;;;;;4884157;29;20092;-77
2023/08/09 09:08:56;;;;;;;4.25;2.83;;;19.50;70.10;;;;;;4899603;29;20139;-77
2023/08/09 09:11:23;;;;;;;3.40;2.55;;;19.60;70.10;;;;;;4915533;29;20032;-78
2023/08/09 09:13:50;;;;;;;3.65;2.70;;;19.60;70.00;;;;;;4884326;29;20036;-78
2023/08/09 09:16:20;;;;;;;3.90;2.88;;;19.70;70.00;;;;;;4899659;29;20036;-78
2023/08/09 09:18:48;;;;;;;3.90;2.78;;;19.80;70.00;;;;;;4899985;29;20043;-78
2023/08/09 09:21:18;;;;;;;3.88;2.45;;;19.80;69.90;;;;;;4899633;29;20435;-78
2023/08/09 09:23:45;;;;;;;4.20;2.92;;;19.80;69.80;;;;;;4899493;29;20136;-78
2023/08/09 09:26:17;;;;;;;3.60;2.75;;;19.90;69.80;;;;;;4899290;29;20049;-78
2023/08/09 09:28:46;;;;;;;3.05;2.38;;;19.90;69.80;;;;;;4899637;29;20036;-78
2023/08/09 09:31:13;;;;;;;3.83;2.70;;;20.00;69.70;;;;;;4900949;29;20039;-78
2023/08/09 09:33:46;;;;;;;2.78;2.33;;;20.00;69.70;;;;;;4884139;29;20473;-78
2023/08/09 09:36:12;;;;;;;3.13;2.17;;;20.10;69.70;;;;;;4900940;29;20124;-78
2023/08/09 09:38:39;;;;;;;4.05;2.58;;;20.20;69.60;;;;;;4915025;29;20037;-78
2023/08/09 09:41:07;;;;;;;2.72;2.08;;;20.30;69.60;;;;;;4901068;29;20167;-78
2023/08/09 09:43:37;;;;;;;3.05;2.25;;;20.30;69.50;;;;;;4899364;29;20032;-77
2023/08/09 09:46:03;;;;;;;3.53;2.50;;;20.30;69.40;;;;;;4883942;29;20033;-78
2023/08/09 09:48:29;;;;;;;3.05;2.30;;;20.40;69.40;;;;;;4914706;29;20446;-78
2023/08/09 09:50:55;;;;;;;3.10;2.22;;;20.40;69.30;;;;;;4914396;29;20490;-78
2023/08/09 09:53:23;;;;;;;2.75;2.15;;;20.50;69.30;;;;;;4900012;29;20045;-78
2023/08/09 09:55:49;;;;;;;3.50;2.20;;;20.60;69.30;;;;;;4914578;29;20040;-78
2023/08/09 09:58:16;;;;;;;2.75;2.05;;;20.60;69.20;;;;;;4898962;29;20060;-78
2023/08/09 10:00:54;;;;;;;2.38;1.85;;;20.60;69.20;;;;;;4900234;29;20029;-78
2023/08/09 10:03:23;;;;;;;2.72;2.08;;;20.70;69.20;;;;;;4899085;29;20033;-78
2023/08/09 10:05:49;;;;;;;2.17;1.90;;;20.80;69.20;;;;;;4898827;29;20040;-78
2023/08/09 10:08:19;;;;;;;3.05;2.20;;;20.80;69.10;;;;;;4899117;29;20033;-78
2023/08/09 10:10:47;;;;;;;2.22;1.75;;;20.80;69.00;;;;;;4899201;29;20390;-78
2023/08/09 10:13:21;;;;;;;2.55;2.00;;;20.90;69.00;;;;;;4898934;29;20032;-78
2023/08/09 10:15:58;;;;;;;2.03;1.67;;;20.90;69.00;;;;;;4898553;29;20060;-78
2023/08/09 10:18:31;;;;;;;2.20;1.80;;;21.00;68.90;;;;;;4914718;29;20287;-78
2023/08/09 10:20:59;;;;;;;1.70;1.60;;;21.00;68.80;;;;;;4898801;29;20480;-78
2023/08/09 10:23:28;;;;;;;2.00;1.67;;;21.10;68.70;;;;;;4883001;29;20389;-78
2023/08/09 10:25:55;;;;;;;2.72;2.00;;;21.10;68.70;;;;;;4899396;29;20052;-78
2023/08/09 10:28:44;;;;;;;2.15;1.50;;;21.20;68.60;;;;;;4898505;29;20052;-78
2023/08/09 10:31:13;;;;;;;2.03;1.67;;;21.20;68.50;;;;;;4898380;29;20033;-78
2023/08/09 10:34:07;;;;;;;2.03;1.67;;;21.30;68.40;;;;;;4898304;29;20040;-78
2023/08/09 10:36:34;;;;;;;2.33;1.70;;;21.30;68.30;;;;;;4895003;29;20040;-78
2023/08/09 10:39:09;;;;;;;2.25;1.77;;;21.30;68.20;;;;;;4899713;29;20044;-78
2023/08/09 10:41:36;;;;;;;1.40;1.30;;;21.40;68.20;;;;;;4899162;29;20039;-78
2023/08/09 10:44:06;;;;;;;2.13;1.70;;;21.50;68.10;;;;;;4898704;29;20151;-79
2023/08/09 10:46:35;;;;;;;2.08;1.73;;;21.50;68.10;;;;;;4898112;29;20131;-78
2023/08/09 10:49:03;;;;;;;1.90;1.40;;;21.50;68.00;;;;;;4882624;29;20037;-79
2023/08/09 10:51:29;;;;;;;2.03;1.63;;;21.60;68.00;;;;;;4898042;29;20036;-78
2023/08/09 10:54:03;;;;;;;1.55;1.42;;;21.60;67.90;;;;;;4898422;29;20051;-78
2023/08/09 10:56:33;;;;;;;1.47;1.30;;;21.60;67.90;;;;;;4898015;29;20506;-78
2023/08/09 10:59:19;;;;;;;1.40;1.30;;;21.60;67.80;;;;;;4899570;29;20029;-78
2023/08/09 11:01:46;;;;;;;1.60;1.48;;;21.70;67.90;;;;;;4898243;29;20039;-78
2023/08/09 11:04:14;;;;;;;1.55;1.40;;;21.70;67.80;;;;;;4882983;29;20033;-78
2023/08/09 11:06:45;;;;;;;1.45;1.35;;;21.70;67.80;;;;;;4913995;29;20068;-78
2023/08/09 11:09:21;;;;;;;1.63;1.52;;;21.80;67.80;;;;;;4897620;29;20043;-78
2023/08/09 11:11:48;;;;;;;1.30;1.20;;;21.80;67.70;;;;;;4897941;29;20064;-78
2023/08/09 11:14:16;;;;;;;1.40;1.30;;;21.90;67.70;;;;;;4899520;29;20047;-78
2023/08/09 11:16:43;;;;;;;1.50;1.40;;;21.90;67.70;;;;;;4897534;29;20124;-78
2023/08/09 11:19:12;;;;;;;1.58;1.48;;;21.90;67.60;;;;;;4898308;29;20033;-78
2023/08/09 11:21:52;;;;;;;1.65;1.52;;;21.90;67.50;;;;;;4898417;29;20037;-78
2023/08/09 11:24:20;;;;;;;1.60;1.48;;;22.00;67.60;;;;;;4899027;29;20041;-78
2023/08/09 11:26:54;;;;;;;1.40;1.30;;;22.00;67.40;;;;;;4897454;29;20123;-79
2023/08/09 11:29:22;;;;;;;1.90;1.50;;;22.10;67.40;;;;;;4897814;29;20032;-78
2023/08/09 11:31:50;;;;;;;1.73;1.42;;;22.10;67.40;;;;;;4897224;29;20029;-79
2023/08/09 11:34:19;;;;;;;1.52;1.40;;;22.10;67.30;;;;;;4897283;29;20093;-80
2023/08/09 11:36:47;;;;;;;1.95;1.50;;;22.20;67.40;;;;;;4897386;29;20036;-80
2023/08/09 11:39:14;;;;;;;2.08;1.48;;;22.10;67.30;;;;;;4897350;29;20470;-78
2023/08/09 11:41:54;;;;;;;1.50;1.40;;;22.20;67.30;;;;;;4897266;29;20390;-77
2023/08/09 11:44:34;;;;;;;1.35;1.23;;;22.20;67.30;;;;;;4897110;29;20438;-78
2023/08/09 11:47:01;;;;;;;2.03;1.58;;;22.30;67.40;;;;;;4897769;29;20083;-77
2023/08/09 11:49:32;;;;;;;1.42;1.33;;;22.30;67.30;;;;;;4897190;29;20492;-78
2023/08/09 11:52:02;;;;;;;1.98;1.30;;;22.30;67.30;;;;;;4881441;29;20119;-78
2023/08/09 11:54:29;;;;;;;1.67;1.50;;;22.30;67.30;;;;;;4898088;29;20188;-78
2023/08/09 11:56:55;;;;;;;1.73;1.38;;;22.40;67.30;;;;;;4897221;29;20033;-78
2023/08/09 11:59:23;;;;;;;1.50;1.27;;;22.40;67.30;;;;;;4897155;29;20402;-77
2023/08/09 12:01:51;;;;;;;1.80;1.40;;;22.40;67.30;;;;;;4897099;29;20035;-78
2023/08/09 12:04:21;;;;;;;1.42;1.33;;;22.40;67.30;;;;;;4898231;29;20043;-78
2023/08/09 12:06:54;;;;;;;1.48;1.35;;;22.50;67.30;;;;;;4896973;29;20033;-78
2023/08/09 12:09:36;;;;;;;1.67;1.52;;;22.50;67.30;;;;;;4896988;29;20043;-78
2023/08/09 12:12:16;;;;;;;1.83;1.45;;;22.50;67.30;;;;;;4912900;29;20080;-77
2023/08/09 12:14:48;;;;;;;1.60;1.40;;;22.60;67.30;;;;;;4883277;29;20068;-78
2023/08/09 12:17:27;;;;;;;1.70;1.38;;;22.60;67.20;;;;;;4916848;29;20045;-79
2023/08/09 12:20:06;;;;;;;1.58;1.30;;;22.60;67.20;;;;;;4900956;29;20052;-78
2023/08/09 12:22:33;;;;;;;1.20;1.10;;;22.70;67.30;;;;;;4901628;29;20028;-79
2023/08/09 12:24:59;;;;;;;1.90;1.50;;;22.70;67.20;;;;;;4900607;29;20143;-79
2023/08/09 12:27:26;;;;;;;1.50;1.40;;;22.70;67.20;;;;;;4916273;29;20056;-79
2023/08/09 12:29:52;;;;;;;1.33;1.23;;;22.70;67.10;;;;;;4885815;29;20033;-80
2023/08/09 12:32:19;;;;;;;1.48;1.38;;;22.80;67.20;;;;;;4900891;29;20028;-79
2023/08/09 12:34:46;;;;;;;1.40;1.23;;;22.80;67.10;;;;;;4900432;29;20064;-79
2023/08/09 12:37:12;;;;;;;1.50;1.40;;;22.80;67.10;;;;;;4900520;29;20029;-78
2023/08/09 12:39:38;;;;;;;1.45;1.35;;;22.80;67.10;;;;;;4916180;29;20111;-79
2023/08/09 12:42:04;;;;;;;1.05;1.00;;;22.80;67.10;;;;;;4885180;29;20060;-78
2023/08/09 12:44:30;;;;;;;1.38;1.15;;;22.90;67.10;;;;;;4901703;29;20045;-79
2023/08/09 12:46:55;;;;;;;2.13;1.45;;;22.90;67.10;;;;;;4901482;29;20529;-79
2023/08/09 12:49:21;;;;;;;1.30;1.20;;;22.90;67.10;;;;;;4901998;29;20370;-80